Time;durP1;ratioP1;P1;durP2;ratioP2;P2;SDS_P1;SDS_P2;PMS_P1;PMS_P2;Temp;Humidity;BMP_temperature;BMP_pressure;BME280_temperature;BME280_humidity;BME280_pressure;Samples;Min_cycle;Max_cycle;Signal;HPM_P1;HPM_P2
2023/01/25 02:04:25;;;;;;;0.30;0.30;;;6.00;57.20;;;;;;6133197;23;20377;-79
2023/01/25 02:06:57;;;;;;;0.20;0.20;;;6.00;57.90;;;;;;6149508;23;20382;-79
2023/01/25 02:09:26;;;;;;;0.25;0.25;;;6.00;57.80;;;;;;6127822;23;20687;-79
2023/01/25 02:11:54;;;;;;;0.30;0.30;;;5.90;58.10;;;;;;6152462;23;20910;-79
2023/01/25 02:14:21;;;;;;;0.30;0.30;;;5.90;58.70;;;;;;6153592;23;20372;-79
2023/01/25 02:16:49;;;;;;;0.30;0.30;;;5.90;57.70;;;;;;6128076;23;20378;-79
2023/01/25 02:19:46;;;;;;;0.38;0.38;;;6.00;57.50;;;;;;6126992;23;20382;-79
2023/01/25 02:22:17;;;;;;;0.30;0.30;;;6.00;58.00;;;;;;6114411;23;20436;-79
2023/01/25 02:24:52;;;;;;;0.30;0.30;;;6.00;57.40;;;;;;6127695;23;20436;-79
2023/01/25 02:27:19;;;;;;;0.28;0.28;;;6.00;57.80;;;;;;6125700;23;20405;-78
2023/01/25 02:29:47;;;;;;;0.30;0.30;;;6.00;58.10;;;;;;6127592;23;20398;-79
2023/01/25 02:32:13;;;;;;;0.30;0.30;;;6.00;58.10;;;;;;6152806;23;20508;-79
2023/01/25 02:34:40;;;;;;;0.30;0.30;;;5.90;57.70;;;;;;6127503;23;20894;-78
2023/01/25 02:37:13;;;;;;;0.30;0.30;;;6.00;57.90;;;;;;6126378;23;20374;-79
2023/01/25 02:39:41;;;;;;;0.30;0.30;;;6.00;58.20;;;;;;6150739;23;20374;-79
2023/01/25 02:42:08;;;;;;;0.30;0.30;;;5.90;57.90;;;;;;6126087;23;20710;-79
2023/01/25 02:44:35;;;;;;;0.30;0.30;;;5.90;57.90;;;;;;6152390;23;20406;-79
2023/01/25 02:47:02;;;;;;;0.30;0.30;;;5.90;58.40;;;;;;6126006;23;20486;-79
2023/01/25 02:49:29;;;;;;;0.30;0.30;;;5.80;58.60;;;;;;6127461;23;20425;-78
2023/01/25 02:51:56;;;;;;;0.30;0.30;;;5.80;58.80;;;;;;6126065;23;20374;-79
2023/01/25 02:54:25;;;;;;;0.30;0.30;;;5.80;58.10;;;;;;6127235;23;20397;-79
2023/01/25 02:56:52;;;;;;;0.30;0.30;;;5.80;58.30;;;;;;6126919;23;20393;-78
2023/01/25 02:59:19;;;;;;;0.30;0.30;;;5.80;58.20;;;;;;6125826;23;20489;-79
2023/01/25 03:01:46;;;;;;;0.30;0.30;;;6.00;57.00;;;;;;6127253;23;20446;-79
2023/01/25 03:04:14;;;;;;;0.30;0.30;;;6.10;55.70;;;;;;6151704;23;20398;-78
2023/01/25 03:06:41;;;;;;;0.30;0.30;;;6.10;56.70;;;;;;6152749;23;20378;-79
2023/01/25 03:09:10;;;;;;;0.30;0.30;;;6.00;56.80;;;;;;6126454;23;20377;-78
2023/01/25 03:11:37;;;;;;;0.30;0.30;;;6.00;56.40;;;;;;6127245;23;20423;-78
2023/01/25 03:14:04;;;;;;;0.30;0.30;;;5.90;57.10;;;;;;6125832;23;20394;-79
2023/01/25 03:16:31;;;;;;;0.30;0.30;;;6.00;56.20;;;;;;6127360;23;20438;-79
2023/01/25 03:18:58;;;;;;;0.20;0.20;;;6.00;56.50;;;;;;6125960;23;20703;-79
2023/01/25 03:21:25;;;;;;;0.28;0.28;;;6.00;56.90;;;;;;6127084;23;20362;-78
2023/01/25 03:24:00;;;;;;;0.30;0.30;;;6.00;56.50;;;;;;6126944;23;20382;-79
2023/01/25 03:26:28;;;;;;;0.30;0.30;;;6.00;56.30;;;;;;6126399;23;20425;-78
2023/01/25 03:28:55;;;;;;;0.30;0.30;;;6.00;56.30;;;;;;6126863;23;20370;-78
2023/01/25 03:31:22;;;;;;;0.30;0.30;;;5.90;56.90;;;;;;6126310;23;20382;-76
2023/01/25 03:33:49;;;;;;;0.30;0.30;;;5.90;57.30;;;;;;6126247;23;20839;-76
2023/01/25 03:36:16;;;;;;;0.30;0.30;;;5.90;57.60;;;;;;6126102;23;20453;-76
2023/01/25 03:38:43;;;;;;;0.30;0.30;;;5.90;57.00;;;;;;6126157;23;20853;-76
2023/01/25 03:41:12;;;;;;;0.30;0.30;;;5.90;57.00;;;;;;6125692;23;20759;-77
2023/01/25 03:43:39;;;;;;;0.30;0.30;;;5.90;57.20;;;;;;6126682;23;20370;-76
2023/01/25 03:46:06;;;;;;;0.20;0.20;;;5.90;57.00;;;;;;6125555;23;20374;-76
2023/01/25 03:48:33;;;;;;;0.30;0.30;;;5.90;56.30;;;;;;6152165;23;20755;-77
2023/01/25 03:51:00;;;;;;;0.25;0.25;;;6.00;56.50;;;;;;6152178;23;20401;-76
2023/01/25 03:53:29;;;;;;;0.20;0.20;;;6.00;56.00;;;;;;6125735;23;20370;-76
2023/01/25 03:56:02;;;;;;;0.20;0.20;;;6.00;56.10;;;;;;6152617;23;20366;-78
2023/01/25 03:58:30;;;;;;;0.20;0.20;;;6.00;55.80;;;;;;6151130;23;20370;-78
2023/01/25 04:00:58;;;;;;;0.30;0.30;;;6.00;56.30;;;;;;6126615;23;20382;-78
2023/01/25 04:03:26;;;;;;;0.30;0.30;;;5.90;56.00;;;;;;6125112;23;20381;-78
2023/01/25 04:05:56;;;;;;;0.20;0.20;;;5.90;57.40;;;;;;6126626;23;20378;-79
2023/01/25 04:08:24;;;;;;;0.20;0.20;;;5.80;57.30;;;;;;6125807;23;20393;-78
2023/01/25 04:10:59;;;;;;;0.30;0.30;;;5.80;56.90;;;;;;6126936;23;20401;-78
2023/01/25 04:13:26;;;;;;;0.30;0.30;;;5.80;57.30;;;;;;6125254;23;20837;-79
2023/01/25 04:15:53;;;;;;;0.30;0.30;;;5.80;57.60;;;;;;6126602;23;20413;-79
2023/01/25 04:18:20;;;;;;;0.20;0.20;;;5.80;57.80;;;;;;6151413;23;20474;-79
2023/01/25 04:20:55;;;;;;;0.25;0.25;;;5.80;57.90;;;;;;6126022;23;20389;-78
2023/01/25 04:23:24;;;;;;;0.20;0.20;;;5.80;57.80;;;;;;6125534;23;20380;-78
2023/01/25 04:25:56;;;;;;;0.30;0.30;;;5.80;58.00;;;;;;6126179;23;20872;-78
2023/01/25 04:28:24;;;;;;;0.30;0.30;;;5.90;58.80;;;;;;6125323;23;20469;-78
2023/01/25 04:30:52;;;;;;;0.30;0.30;;;5.80;60.00;;;;;;6126162;23;20483;-78
2023/01/25 04:33:19;;;;;;;0.30;0.30;;;5.80;60.60;;;;;;6125069;23;20394;-79
2023/01/25 04:35:46;;;;;;;0.30;0.30;;;5.80;61.20;;;;;;6126041;23;20388;-79
2023/01/25 04:38:13;;;;;;;0.30;0.30;;;5.70;63.30;;;;;;6125682;23;20374;-79
2023/01/25 04:40:41;;;;;;;0.30;0.30;;;5.50;64.30;;;;;;6125800;23;20382;-79
2023/01/25 04:43:11;;;;;;;0.30;0.30;;;5.50;64.60;;;;;;6125068;23;20402;-79
2023/01/25 04:45:38;;;;;;;0.30;0.30;;;5.40;64.70;;;;;;6125827;23;20400;-79
2023/01/25 04:48:09;;;;;;;0.30;0.30;;;5.40;65.40;;;;;;6126522;23;20391;-79
2023/01/25 04:50:37;;;;;;;0.50;0.50;;;5.30;64.80;;;;;;6150666;23;20664;-79
2023/01/25 04:53:08;;;;;;;1.10;1.10;;;5.30;63.30;;;;;;6124973;23;20450;-79
2023/01/25 04:55:35;;;;;;;1.20;1.20;;;5.30;63.30;;;;;;6150767;23;20389;-78
2023/01/25 04:58:02;;;;;;;1.15;0.98;;;5.40;62.80;;;;;;6151656;23;20739;-78
2023/01/25 05:00:30;;;;;;;0.70;0.70;;;5.40;62.30;;;;;;6125222;23;20421;-78
2023/01/25 05:02:57;;;;;;;0.50;0.50;;;5.40;61.80;;;;;;6151447;23;20378;-80
2023/01/25 05:05:24;;;;;;;0.50;0.50;;;5.40;62.00;;;;;;6125014;23;20398;-78
2023/01/25 05:07:51;;;;;;;0.30;0.30;;;5.40;61.90;;;;;;6151424;23;20398;-78
2023/01/25 05:10:18;;;;;;;0.40;0.40;;;5.40;61.40;;;;;;6150459;23;20380;-79
2023/01/25 05:12:44;;;;;;;0.40;0.40;;;5.50;61.60;;;;;;6125632;23;20421;-78
2023/01/25 05:15:11;;;;;;;0.40;0.40;;;5.50;62.00;;;;;;6126069;23;20420;-78
2023/01/25 05:17:38;;;;;;;0.50;0.50;;;5.40;64.80;;;;;;6125141;23;20823;-78
2023/01/25 05:20:05;;;;;;;0.50;0.50;;;5.40;65.40;;;;;;6125620;23;20374;-78
2023/01/25 05:22:32;;;;;;;0.50;0.50;;;5.40;66.20;;;;;;6124909;23;20378;-79
2023/01/25 05:25:01;;;;;;;3.45;3.25;;;5.40;67.80;;;;;;6151154;23;20378;-78
2023/01/25 05:27:28;;;;;;;1.30;1.20;;;5.20;69.00;;;;;;6124735;23;20378;-77
2023/01/25 05:29:56;;;;;;;0.70;0.70;;;5.10;68.70;;;;;;6126155;23;20370;-77
2023/01/25 05:32:23;;;;;;;0.50;0.50;;;5.10;69.60;;;;;;6124680;23;20389;-78
2023/01/25 05:34:51;;;;;;;0.40;0.40;;;5.00;71.00;;;;;;6125622;23;20374;-78
2023/01/25 05:37:19;;;;;;;0.30;0.30;;;5.00;70.40;;;;;;6124903;23;20453;-77
2023/01/25 05:39:46;;;;;;;0.40;0.40;;;5.00;71.40;;;;;;6125805;23;20417;-77
2023/01/25 05:42:15;;;;;;;0.30;0.30;;;5.00;71.70;;;;;;6125438;23;20389;-78
2023/01/25 05:44:43;;;;;;;0.40;0.30;;;5.00;71.20;;;;;;6150819;23;20366;-77
2023/01/25 05:47:15;;;;;;;0.50;0.50;;;5.00;72.00;;;;;;6126124;23;20377;-77
2023/01/25 05:49:42;;;;;;;0.40;0.40;;;4.90;73.60;;;;;;6124974;23;20421;-77
2023/01/25 05:52:13;;;;;;;0.30;0.30;;;4.90;73.80;;;;;;6151153;23;20401;-77
2023/01/25 05:54:40;;;;;;;0.40;0.40;;;4.90;74.30;;;;;;6149875;23;20424;-78
2023/01/25 05:57:07;;;;;;;0.30;0.30;;;4.90;74.10;;;;;;6151589;23;20752;-77
2023/01/25 05:59:34;;;;;;;0.45;0.45;;;4.80;74.50;;;;;;6124369;23;20378;-78
2023/01/25 06:02:01;;;;;;;0.30;0.30;;;4.90;74.80;;;;;;6125991;23;20370;-77
2023/01/25 06:04:28;;;;;;;0.40;0.40;;;4.80;75.40;;;;;;6124362;23;20440;-77
2023/01/25 06:06:55;;;;;;;0.40;0.40;;;4.70;77.80;;;;;;6125651;23;20374;-77
2023/01/25 06:09:22;;;;;;;0.30;0.30;;;4.60;80.50;;;;;;6124991;23;20462;-77
2023/01/25 06:11:49;;;;;;;0.40;0.40;;;4.60;80.60;;;;;;6124875;23;20409;-77
2023/01/25 06:14:16;;;;;;;0.40;0.40;;;4.70;79.80;;;;;;6151835;23;20747;-77
2023/01/25 06:16:43;;;;;;;0.50;0.50;;;4.70;79.50;;;;;;6124852;23;20401;-78
2023/01/25 06:19:12;;;;;;;0.40;0.40;;;4.80;79.00;;;;;;6151421;23;20378;-78
2023/01/25 06:21:39;;;;;;;0.55;0.55;;;4.70;81.00;;;;;;6150264;23;20378;-78
2023/01/25 06:24:06;;;;;;;0.55;0.55;;;4.60;82.50;;;;;;6125446;23;20476;-78
2023/01/25 06:26:33;;;;;;;0.60;0.60;;;4.70;82.00;;;;;;6124807;23;20948;-78
2023/01/25 06:29:00;;;;;;;0.50;0.50;;;4.70;81.90;;;;;;6151292;23;20409;-78
2023/01/25 06:31:27;;;;;;;0.60;0.60;;;4.70;82.90;;;;;;6125144;23;20787;-78
2023/01/25 06:33:54;;;;;;;0.50;0.50;;;4.70;83.70;;;;;;6125692;23;20740;-78
2023/01/25 06:36:21;;;;;;;0.70;0.70;;;4.70;84.00;;;;;;6151260;23;20374;-78
2023/01/25 06:38:50;;;;;;;0.60;0.60;;;4.70;85.70;;;;;;6124470;23;20374;-78
2023/01/25 06:41:18;;;;;;;0.70;0.70;;;4.70;86.10;;;;;;6125396;23;20446;-78
2023/01/25 06:43:46;;;;;;;0.57;0.57;;;4.80;87.40;;;;;;6151682;23;20510;-77
2023/01/25 06:46:14;;;;;;;0.70;0.70;;;4.70;89.30;;;;;;6153183;23;20418;-78
2023/01/25 06:48:41;;;;;;;0.60;0.60;;;4.50;92.90;;;;;;6126338;23;20377;-78
2023/01/25 06:51:11;;;;;;;0.60;0.60;;;4.50;92.60;;;;;;6127369;23;20374;-76
2023/01/25 06:53:43;;;;;;;0.70;0.70;;;4.40;94.90;;;;;;6152278;23;20929;-78
2023/01/25 06:56:21;;;;;;;0.70;0.70;;;4.30;95.00;;;;;;6127228;23;20373;-78
2023/01/25 06:58:49;;;;;;;1.00;1.00;;;4.40;95.00;;;;;;6122305;23;20374;-77
2023/01/25 07:01:18;;;;;;;0.80;0.80;;;4.40;96.90;;;;;;6122343;23;20408;-77
2023/01/25 07:03:57;;;;;;;0.70;0.70;;;4.40;96.10;;;;;;6150929;23;20406;-79
2023/01/25 07:06:29;;;;;;;0.80;0.80;;;4.40;93.60;;;;;;6126180;23;20604;-77
2023/01/25 07:09:02;;;;;;;0.77;0.77;;;4.50;91.50;;;;;;6151680;23;20406;-77
2023/01/25 07:11:29;;;;;;;0.70;0.70;;;4.50;89.40;;;;;;6125813;23;20405;-77
2023/01/25 07:13:55;;;;;;;0.88;0.88;;;4.60;85.50;;;;;;6126027;23;20501;-76
2023/01/25 07:16:22;;;;;;;0.60;0.60;;;4.70;87.70;;;;;;6126657;23;20470;-77
2023/01/25 07:18:49;;;;;;;0.80;0.80;;;4.70;87.00;;;;;;6152094;23;20445;-77
2023/01/25 07:21:21;;;;;;;0.80;0.80;;;4.80;88.40;;;;;;6152091;23;20378;-77
2023/01/25 07:23:49;;;;;;;1.92;1.55;;;4.80;90.60;;;;;;6125910;23;20441;-77
2023/01/25 07:26:19;;;;;;;1.30;1.20;;;4.80;86.00;;;;;;6126341;23;20378;-77
2023/01/25 07:28:46;;;;;;;1.10;1.00;;;4.80;84.10;;;;;;6125905;23;20432;-77
2023/01/25 07:31:15;;;;;;;0.80;0.80;;;4.90;83.60;;;;;;6126530;23;20378;-77
2023/01/25 07:33:42;;;;;;;0.93;0.93;;;4.90;84.70;;;;;;6125219;23;20375;-77
2023/01/25 07:36:11;;;;;;;0.90;0.90;;;5.00;88.60;;;;;;6126281;23;20374;-77
2023/01/25 07:38:38;;;;;;;0.80;0.80;;;5.00;90.60;;;;;;6125499;23;20413;-77
2023/01/25 07:41:05;;;;;;;0.70;0.70;;;4.90;91.70;;;;;;6152197;23;20457;-77
2023/01/25 07:43:32;;;;;;;0.70;0.70;;;4.90;92.20;;;;;;6127003;23;20441;-77
2023/01/25 07:46:00;;;;;;;0.70;0.70;;;4.90;93.00;;;;;;6125773;23;20401;-77
2023/01/25 07:48:27;;;;;;;0.70;0.70;;;4.80;93.90;;;;;;6126304;23;20734;-77
2023/01/25 07:51:10;;;;;;;0.70;0.70;;;4.80;94.60;;;;;;6125844;23;20897;-77
2023/01/25 07:53:42;;;;;;;0.70;0.70;;;4.80;95.80;;;;;;6125249;23;21234;-77
2023/01/25 07:56:10;;;;;;;0.60;0.60;;;5.10;94.60;;;;;;6127388;23;20700;-78
2023/01/25 07:58:37;;;;;;;0.80;0.80;;;5.40;93.40;;;;;;6125051;23;20378;-78
2023/01/25 08:01:13;;;;;;;0.60;0.60;;;5.70;92.60;;;;;;6126212;23;20366;-77
2023/01/25 08:03:41;;;;;;;0.70;0.70;;;6.00;91.30;;;;;;6125490;23;20401;-77
2023/01/25 08:06:09;;;;;;;0.75;0.75;;;6.20;89.20;;;;;;6126627;23;20374;-78
2023/01/25 08:08:42;;;;;;;0.80;0.70;;;6.30;87.90;;;;;;6150541;23;20796;-78
2023/01/25 08:11:14;;;;;;;1.20;1.20;;;6.40;87.50;;;;;;6151623;23;20382;-77
2023/01/25 08:13:45;;;;;;;1.58;1.48;;;6.60;86.30;;;;;;6150406;23;20385;-77
2023/01/25 08:16:13;;;;;;;1.23;1.17;;;6.50;87.90;;;;;;6151840;23;20370;-77
2023/01/25 08:18:40;;;;;;;1.45;1.35;;;6.50;89.10;;;;;;6125519;23;20382;-77
2023/01/25 08:21:09;;;;;;;1.38;1.27;;;6.40;90.00;;;;;;6125609;23;20386;-77
2023/01/25 08:23:37;;;;;;;1.20;1.20;;;6.50;90.50;;;;;;6125396;23;20397;-78
2023/01/25 08:26:09;;;;;;;1.80;1.70;;;6.50;90.10;;;;;;6125475;23;20760;-77
2023/01/25 08:28:36;;;;;;;1.60;1.50;;;6.40;88.40;;;;;;6136979;23;20402;-79
2023/01/25 08:31:25;;;;;;;1.30;1.20;;;6.40;88.80;;;;;;6153576;23;20449;-77
2023/01/25 08:33:52;;;;;;;1.10;1.10;;;6.70;87.00;;;;;;6125218;23;20378;-77
2023/01/25 08:36:22;;;;;;;1.08;1.00;;;6.80;84.40;;;;;;6126326;23;20382;-77
2023/01/25 08:38:54;;;;;;;1.35;1.25;;;6.70;81.80;;;;;;6150548;23;20384;-77
2023/01/25 08:41:21;;;;;;;1.10;1.10;;;6.40;84.10;;;;;;6125160;23;20768;-77
2023/01/25 08:43:50;;;;;;;1.60;1.50;;;6.40;85.40;;;;;;6150510;23;20758;-77
2023/01/25 08:46:17;;;;;;;1.70;1.60;;;6.70;86.30;;;;;;6151805;23;20390;-77
2023/01/25 08:48:44;;;;;;;1.52;1.42;;;6.80;83.70;;;;;;6150888;23;20685;-77
2023/01/25 08:51:12;;;;;;;1.10;1.10;;;6.90;83.40;;;;;;6126114;23;20397;-78
2023/01/25 08:53:40;;;;;;;1.00;1.00;;;7.10;82.30;;;;;;6125964;23;20374;-77
2023/01/25 08:56:09;;;;;;;1.20;1.20;;;7.40;82.00;;;;;;6125120;23;20818;-78
2023/01/25 08:58:38;;;;;;;1.20;1.10;;;7.80;78.60;;;;;;6126579;23;20386;-78
2023/01/25 09:01:07;;;;;;;1.10;1.10;;;8.10;75.10;;;;;;6124974;23;20730;-78
2023/01/25 09:03:36;;;;;;;1.10;1.10;;;8.20;74.60;;;;;;6126037;23;20378;-78
2023/01/25 09:06:04;;;;;;;1.00;1.00;;;8.60;72.30;;;;;;6149260;23;20374;-78
2023/01/25 09:08:31;;;;;;;1.13;1.00;;;8.70;71.10;;;;;;6126374;23;20838;-78
2023/01/25 09:11:06;;;;;;;0.90;0.90;;;8.90;70.10;;;;;;6100506;23;20428;-78
2023/01/25 09:13:33;;;;;;;0.98;0.93;;;8.70;69.60;;;;;;6126080;23;20732;-77
2023/01/25 09:16:02;;;;;;;0.95;0.95;;;8.80;69.50;;;;;;6150443;23;20394;-78
2023/01/25 09:18:30;;;;;;;1.00;1.00;;;8.90;68.40;;;;;;6126593;23;20378;-78
2023/01/25 09:20:57;;;;;;;0.90;0.90;;;9.00;67.00;;;;;;6124740;23;20407;-78
2023/01/25 09:23:25;;;;;;;0.70;0.70;;;9.00;64.70;;;;;;6126612;23;20424;-78
2023/01/25 09:25:59;;;;;;;0.70;0.70;;;9.00;65.00;;;;;;6125343;23;20432;-77
2023/01/25 09:28:28;;;;;;;1.05;1.05;;;9.00;62.40;;;;;;6126249;23;20401;-78
2023/01/25 09:31:01;;;;;;;0.82;0.82;;;9.10;63.90;;;;;;6124952;23;20429;-78
2023/01/25 09:33:47;;;;;;;0.90;0.90;;;9.00;64.80;;;;;;6128666;23;20445;-78
2023/01/25 09:36:14;;;;;;;0.90;0.90;;;8.80;65.50;;;;;;6126346;23;20401;-78
2023/01/25 09:38:41;;;;;;;0.88;0.88;;;8.90;66.10;;;;;;6125596;23;20374;-77
2023/01/25 09:41:26;;;;;;;1.00;1.00;;;9.00;66.10;;;;;;6124898;23;20916;-77
2023/01/25 09:44:12;;;;;;;1.10;1.10;;;9.00;66.50;;;;;;6124944;23;20390;-77
2023/01/25 09:46:44;;;;;;;0.80;0.80;;;9.00;67.00;;;;;;6125562;23;20452;-77
2023/01/25 09:49:34;;;;;;;1.02;1.02;;;9.20;66.50;;;;;;6125601;23;20353;-77
2023/01/25 09:52:41;;;;;;;0.70;0.70;;;9.30;64.10;;;;;;6135526;23;20791;-77
2023/01/25 09:55:14;;;;;;;0.50;0.50;;;9.40;61.00;;;;;;6150449;23;20747;-77
2023/01/25 09:57:44;;;;;;;0.60;0.60;;;9.60;60.50;;;;;;6125889;23;20416;-77
2023/01/25 10:00:19;;;;;;;0.40;0.40;;;9.80;59.50;;;;;;6124528;23;20433;-77
2023/01/25 10:03:05;;;;;;;0.50;0.50;;;9.80;58.60;;;;;;6125443;23;20378;-77
2023/01/25 10:05:44;;;;;;;0.50;0.50;;;9.90;57.80;;;;;;6124853;23;20386;-77
2023/01/25 10:08:41;;;;;;;0.50;0.50;;;9.90;57.20;;;;;;6124707;23;20425;-77
2023/01/25 10:11:30;;;;;;;0.40;0.40;;;9.90;56.60;;;;;;6114301;23;20726;-77
2023/01/25 10:13:58;;;;;;;0.50;0.50;;;10.00;56.80;;;;;;6125025;23;20718;-78
2023/01/25 10:16:32;;;;;;;0.50;0.50;;;10.00;56.60;;;;;;6151760;23;20374;-77
2023/01/25 10:19:32;;;;;;;0.43;0.43;;;10.00;56.50;;;;;;6127014;23;20366;-77
2023/01/25 10:22:23;;;;;;;0.50;0.50;;;9.90;56.60;;;;;;6127193;23;20457;-77
2023/01/25 10:25:11;;;;;;;0.50;0.50;;;9.90;56.70;;;;;;6126974;23;20413;-78
2023/01/25 10:28:01;;;;;;;0.47;0.47;;;10.10;56.90;;;;;;6126117;23;20384;-78
2023/01/25 10:30:38;;;;;;;0.50;0.50;;;10.10;55.60;;;;;;6116956;23;20382;-78
2023/01/25 10:33:14;;;;;;;0.57;0.57;;;10.10;55.40;;;;;;6126743;23;20369;-77
2023/01/25 10:35:44;;;;;;;0.60;0.60;;;10.20;55.60;;;;;;6125577;23;20409;-78
2023/01/25 10:38:17;;;;;;;0.50;0.50;;;10.00;57.30;;;;;;6128287;23;20772;-78
2023/01/25 10:40:54;;;;;;;0.60;0.60;;;10.10;57.00;;;;;;6126552;23;20377;-78
2023/01/25 10:43:21;;;;;;;0.40;0.40;;;10.00;57.80;;;;;;6127472;23;20410;-77
2023/01/25 10:45:49;;;;;;;0.40;0.40;;;10.00;56.90;;;;;;6150925;23;20374;-79
2023/01/25 10:48:23;;;;;;;0.55;0.50;;;10.10;56.60;;;;;;6127247;23;20398;-78
2023/01/25 10:50:53;;;;;;;0.57;0.50;;;10.20;56.40;;;;;;6126472;23;20378;-78
2023/01/25 10:53:32;;;;;;;0.50;0.50;;;10.30;55.60;;;;;;6127084;23;20370;-78
2023/01/25 10:56:20;;;;;;;0.40;0.40;;;10.30;56.00;;;;;;6126812;23;20428;-78
2023/01/25 10:58:53;;;;;;;0.40;0.40;;;10.20;55.00;;;;;;6126164;23;20429;-77
2023/01/25 11:01:30;;;;;;;0.40;0.40;;;10.10;55.20;;;;;;6127104;23;20386;-80
2023/01/25 11:03:58;;;;;;;0.40;0.40;;;10.20;54.30;;;;;;6151902;23;20389;-78
2023/01/25 11:06:36;;;;;;;0.60;0.40;;;10.20;54.00;;;;;;6127192;23;20402;-79
2023/01/25 11:09:21;;;;;;;0.40;0.40;;;10.20;54.30;;;;;;6126822;23;20436;-78
2023/01/25 11:12:15;;;;;;;0.40;0.40;;;10.00;55.40;;;;;;6152404;23;20370;-78
2023/01/25 11:14:42;;;;;;;0.40;0.40;;;9.80;56.00;;;;;;6126775;23;20383;-78
2023/01/25 11:17:30;;;;;;;0.40;0.40;;;9.90;57.10;;;;;;6126808;23;20478;-78
2023/01/25 11:20:18;;;;;;;0.50;0.50;;;10.00;56.10;;;;;;6125821;23;20382;-79
2023/01/25 11:22:55;;;;;;;0.30;0.30;;;10.00;56.40;;;;;;6125787;23;20386;-79
2023/01/25 11:25:33;;;;;;;0.40;0.40;;;10.00;56.80;;;;;;6127140;23;20428;-78
2023/01/25 11:28:10;;;;;;;0.40;0.40;;;10.20;56.70;;;;;;6152012;23;20382;-78
2023/01/25 11:30:37;;;;;;;0.40;0.40;;;10.20;56.60;;;;;;6152297;23;20382;-78
2023/01/25 11:33:10;;;;;;;0.40;0.40;;;10.20;56.30;;;;;;6126341;23;20381;-78
2023/01/25 11:35:48;;;;;;;0.50;0.50;;;10.40;56.60;;;;;;6126299;23;20486;-78
2023/01/25 11:38:20;;;;;;;0.50;0.50;;;10.40;55.80;;;;;;6125457;23;20374;-77
2023/01/25 11:41:07;;;;;;;0.40;0.40;;;10.20;55.80;;;;;;6126982;23;20420;-78
2023/01/25 11:43:46;;;;;;;0.40;0.40;;;10.20;56.40;;;;;;6126029;23;20378;-77
2023/01/25 11:46:26;;;;;;;0.38;0.38;;;10.30;56.30;;;;;;6125143;23;20386;-78
2023/01/25 11:49:31;;;;;;;1.63;1.52;;;10.40;55.40;;;;;;6126449;23;20373;-77
2023/01/25 11:52:20;;;;;;;0.40;0.40;;;9.80;55.50;;;;;;6125739;23;20401;-77
2023/01/25 11:55:25;;;;;;;0.38;0.38;;;9.80;57.00;;;;;;6125469;23;20688;-78
2023/01/25 11:58:19;;;;;;;0.40;0.40;;;9.90;56.30;;;;;;6151720;23;20735;-80
2023/01/25 12:00:50;;;;;;;0.40;0.40;;;10.10;56.20;;;;;;6125626;23;20444;-77
2023/01/25 12:03:38;;;;;;;0.50;0.50;;;9.80;56.60;;;;;;6125741;23;20383;-77
2023/01/25 12:06:44;;;;;;;0.55;0.50;;;9.60;57.30;;;;;;6149657;23;20427;-78
2023/01/25 12:09:42;;;;;;;0.55;0.55;;;9.40;59.80;;;;;;6125132;23;20386;-78
2023/01/25 12:12:24;;;;;;;0.50;0.50;;;9.30;59.30;;;;;;6125520;23;20370;-78
2023/01/25 12:15:09;;;;;;;0.50;0.50;;;9.30;60.50;;;;;;6124866;23;20384;-78
2023/01/25 12:17:57;;;;;;;0.40;0.40;;;9.30;60.70;;;;;;6125517;23;20378;-77
2023/01/25 12:20:44;;;;;;;0.40;0.40;;;9.30;59.60;;;;;;6125854;23;20366;-78
2023/01/25 12:23:43;;;;;;;0.40;0.40;;;9.40;59.20;;;;;;6124467;23;20696;-77
2023/01/25 12:26:43;;;;;;;0.50;0.50;;;9.40;60.40;;;;;;6125482;23;20374;-77
2023/01/25 12:29:29;;;;;;;1.20;0.70;;;9.40;61.00;;;;;;6114683;23;20429;-77
2023/01/25 12:32:12;;;;;;;0.50;0.50;;;9.40;60.50;;;;;;6126805;23;20707;-78
2023/01/25 12:34:49;;;;;;;0.40;0.40;;;9.30;61.10;;;;;;6126222;23;20432;-78
2023/01/25 12:37:22;;;;;;;0.50;0.50;;;9.30;60.70;;;;;;6126150;23;20405;-78
2023/01/25 12:39:57;;;;;;;0.47;0.47;;;9.50;61.30;;;;;;6126017;23;20366;-78
2023/01/25 12:42:33;;;;;;;0.47;0.47;;;9.60;59.90;;;;;;6126116;23;20409;-77
2023/01/25 12:45:12;;;;;;;0.50;0.50;;;9.50;58.40;;;;;;6151071;23;20425;-79
2023/01/25 12:48:08;;;;;;;0.57;0.57;;;9.30;59.80;;;;;;6150945;23;20762;-78
2023/01/25 12:50:54;;;;;;;0.80;0.50;;;9.20;60.20;;;;;;6110612;23;20378;-78
2023/01/25 12:53:37;;;;;;;0.40;0.40;;;9.20;60.40;;;;;;6125713;23;20382;-78
2023/01/25 12:56:07;;;;;;;0.40;0.40;;;9.30;60.30;;;;;;6125128;23;20456;-78
2023/01/25 12:58:46;;;;;;;0.40;0.40;;;9.50;60.70;;;;;;6126049;23;20396;-78
2023/01/25 13:01:32;;;;;;;0.40;0.40;;;9.80;60.50;;;;;;6150913;23;20715;-78
2023/01/25 13:04:37;;;;;;;0.30;0.30;;;10.00;60.30;;;;;;6124333;23;20383;-78
2023/01/25 13:07:20;;;;;;;0.50;0.30;;;9.80;59.90;;;;;;6124645;23;20400;-79
2023/01/25 13:10:09;;;;;;;0.30;0.30;;;10.00;59.30;;;;;;6126017;23;20401;-79
2023/01/25 13:12:54;;;;;;;0.30;0.30;;;10.10;59.10;;;;;;6150976;23;21227;-78
2023/01/25 13:15:42;;;;;;;0.65;0.50;;;10.10;58.50;;;;;;6150661;23;20371;-79
2023/01/25 13:18:27;;;;;;;0.80;0.50;;;9.80;59.10;;;;;;6126257;23;20366;-78
2023/01/25 13:20:55;;;;;;;0.32;0.32;;;9.80;59.30;;;;;;6124927;23;20374;-78
2023/01/25 13:23:44;;;;;;;0.40;0.40;;;10.00;60.00;;;;;;6126154;23;20384;-79
2023/01/25 13:26:20;;;;;;;0.35;0.35;;;9.90;59.10;;;;;;6124656;23;20369;-79
2023/01/25 13:28:49;;;;;;;0.60;0.32;;;10.00;59.30;;;;;;6148819;23;20386;-79
2023/01/25 13:31:39;;;;;;;0.40;0.40;;;9.90;59.20;;;;;;6125594;23;20746;-78
2023/01/25 13:34:34;;;;;;;0.30;0.30;;;10.00;59.50;;;;;;6128499;23;20373;-78
2023/01/25 13:37:19;;;;;;;0.40;0.40;;;10.00;59.20;;;;;;6123200;23;20404;-80
2023/01/25 13:39:49;;;;;;;0.40;0.40;;;10.00;59.20;;;;;;6125446;23;20409;-78
2023/01/25 13:42:28;;;;;;;0.57;0.57;;;9.80;59.60;;;;;;6124247;23;20382;-78
2023/01/25 13:45:03;;;;;;;0.50;0.50;;;9.40;60.40;;;;;;6126092;23;20370;-78
2023/01/25 13:47:37;;;;;;;0.40;0.40;;;9.50;61.30;;;;;;6149299;23;20392;-77
2023/01/25 13:50:21;;;;;;;0.57;0.57;;;9.60;61.70;;;;;;6101908;23;20736;-78
2023/01/25 13:53:22;;;;;;;0.50;0.40;;;9.60;60.70;;;;;;6151217;23;20393;-77
2023/01/25 13:55:54;;;;;;;0.70;0.70;;;9.40;61.70;;;;;;6080901;23;20735;-77
2023/01/25 13:58:29;;;;;;;0.43;0.43;;;9.50;62.10;;;;;;6127597;23;20826;-77
2023/01/25 14:01:05;;;;;;;0.50;0.50;;;9.70;62.20;;;;;;6126842;23;20433;-79
2023/01/25 14:03:39;;;;;;;0.40;0.40;;;9.60;61.40;;;;;;6126236;23;20390;-79
2023/01/25 14:06:14;;;;;;;0.40;0.40;;;9.80;60.40;;;;;;6127609;23;20695;-79
2023/01/25 14:08:42;;;;;;;0.40;0.40;;;9.90;60.10;;;;;;6126832;23;20742;-77
2023/01/25 14:11:09;;;;;;;0.40;0.40;;;10.00;59.60;;;;;;6153232;23;20746;-78
2023/01/25 14:13:36;;;;;;;0.40;0.40;;;10.00;59.80;;;;;;6126643;23;20460;-78
2023/01/25 14:16:08;;;;;;;0.40;0.40;;;9.90;59.70;;;;;;6127232;23;20378;-78
2023/01/25 14:18:37;;;;;;;0.40;0.40;;;9.90;59.10;;;;;;6127057;23;20766;-78
2023/01/25 14:21:15;;;;;;;0.45;0.45;;;9.90;59.20;;;;;;6126163;23;20370;-78
2023/01/25 14:23:42;;;;;;;0.40;0.40;;;9.70;59.50;;;;;;6126533;23;20473;-78
2023/01/25 14:26:21;;;;;;;0.50;0.50;;;9.50;60.70;;;;;;6127576;23;20389;-77
2023/01/25 14:28:54;;;;;;;0.50;0.50;;;9.60;60.60;;;;;;6126123;23;20417;-77
2023/01/25 14:31:33;;;;;;;0.50;0.50;;;9.50;61.20;;;;;;6129157;23;20718;-79
2023/01/25 14:34:02;;;;;;;0.50;0.50;;;9.60;61.50;;;;;;6152550;23;20710;-78
2023/01/25 14:36:33;;;;;;;0.50;0.50;;;9.60;61.80;;;;;;6127536;23;20381;-78
2023/01/25 14:39:00;;;;;;;0.47;0.47;;;9.60;61.20;;;;;;6126847;23;20378;-78
2023/01/25 14:41:42;;;;;;;0.60;0.60;;;9.50;60.90;;;;;;6128317;23;20476;-78
2023/01/25 14:44:27;;;;;;;0.50;0.50;;;9.50;61.70;;;;;;6130082;23;20355;-79
2023/01/25 14:47:28;;;;;;;0.60;0.60;;;9.60;61.40;;;;;;6127703;23;20382;-78
2023/01/25 14:50:28;;;;;;;0.60;0.60;;;9.60;61.40;;;;;;6126190;23;20362;-78
2023/01/25 14:52:57;;;;;;;0.82;0.82;;;9.60;61.00;;;;;;6125828;23;20374;-78
2023/01/25 14:55:24;;;;;;;5.22;4.93;;;9.40;61.90;;;;;;6127286;23;20450;-78
2023/01/25 14:57:57;;;;;;;1.75;1.65;;;9.50;62.10;;;;;;6126073;23;20396;-78
2023/01/25 15:00:31;;;;;;;0.70;0.70;;;9.60;62.60;;;;;;6126652;23;20369;-78
2023/01/25 15:03:01;;;;;;;0.50;0.50;;;9.50;62.00;;;;;;6125572;23;20385;-78
2023/01/25 15:05:31;;;;;;;0.60;0.60;;;9.60;62.20;;;;;;6126768;23;20386;-78
2023/01/25 15:08:07;;;;;;;0.82;0.82;;;9.60;62.60;;;;;;6101855;23;20433;-79
2023/01/25 15:10:36;;;;;;;0.80;0.80;;;9.50;61.90;;;;;;6126138;23;20425;-79
2023/01/25 15:13:06;;;;;;;1.00;0.73;;;9.50;62.40;;;;;;6126415;23;20376;-78
2023/01/25 15:16:01;;;;;;;0.80;0.80;;;9.50;62.60;;;;;;6125090;23;20441;-78
2023/01/25 15:18:56;;;;;;;0.70;0.70;;;9.40;63.20;;;;;;6127365;23;20417;-78
2023/01/25 15:21:31;;;;;;;0.70;0.70;;;9.50;64.00;;;;;;6125852;23;20406;-79
2023/01/25 15:24:03;;;;;;;0.70;0.70;;;9.50;62.80;;;;;;6125608;23;20386;-78
2023/01/25 15:26:33;;;;;;;0.70;0.70;;;9.40;63.40;;;;;;6124396;23;20393;-78
2023/01/25 15:29:11;;;;;;;0.70;0.70;;;9.30;63.70;;;;;;6126454;23;20727;-78
2023/01/25 15:31:41;;;;;;;1.10;0.60;;;9.40;64.10;;;;;;6125522;23;20405;-79